createdAt,value
2022-12-15T00:02:17.403Z,92.23
2022-12-15T00:05:02.472Z,93.31
2022-12-15T00:07:47.776Z,93.21
2022-12-15T00:10:33.089Z,93.15
2022-12-15T00:13:18.875Z,92.44
2022-12-15T00:16:05.853Z,93.10
2022-12-15T00:18:51.602Z,93.27
2022-12-15T00:21:36.909Z,92.82
2022-12-15T00:24:22.164Z,93.88
2022-12-15T00:27:07.204Z,93.96
2022-12-15T00:29:54.318Z,93.74
2022-12-15T00:32:41.050Z,93.78
2022-12-15T00:35:26.801Z,93.53
2022-12-15T00:38:12.019Z,92.89
2022-12-15T00:40:38.594Z,94.01
2022-12-15T00:43:05.591Z,91.75
2022-12-15T00:45:50.544Z,92.32
2022-12-15T00:48:18.972Z,93.73
2022-12-15T00:50:52.699Z,94.89
2022-12-15T00:53:42.876Z,95.01
2022-12-15T00:56:28.623Z,95.32
2022-12-15T00:59:14.303Z,94.63
2022-12-15T01:02:00.205Z,95.16
2022-12-15T01:04:47.071Z,94.30
2022-12-15T01:07:34.886Z,94.86
2022-12-15T01:10:20.166Z,94.28
2022-12-15T01:13:06.214Z,92.76
2022-12-15T01:15:51.405Z,93.36
2022-12-15T01:18:36.681Z,91.99
2022-12-15T01:21:06.975Z,94.21
2022-12-15T01:23:34.487Z,93.57
2022-12-15T01:26:02.714Z,93.70
2022-12-15T01:28:29.445Z,93.71
2022-12-15T01:30:56.923Z,93.53
2022-12-15T01:33:23.537Z,94.40
2022-12-15T01:35:57.319Z,94.10
2022-12-15T01:38:24.098Z,93.56
2022-12-15T01:40:59.415Z,93.77
2022-12-15T01:43:30.803Z,94.13
2022-12-15T01:46:22.240Z,95.05
2022-12-15T01:48:54.921Z,95.22
2022-12-15T01:51:37.464Z,93.68
2022-12-15T01:54:09.731Z,93.87
2022-12-15T01:56:40.301Z,93.81
2022-12-15T01:59:11.594Z,94.32
2022-12-15T02:01:38.285Z,94.31
2022-12-15T02:04:04.949Z,93.67
2022-12-15T02:06:31.437Z,93.81
2022-12-15T02:09:00.747Z,93.82
2022-12-15T02:11:44.107Z,93.74
2022-12-15T02:14:13.976Z,93.10
2022-12-15T02:16:51.948Z,92.84
2022-12-15T02:19:37.375Z,92.71
2022-12-15T02:22:06.934Z,93.25
2022-12-15T02:24:58.153Z,94.15
2022-12-15T02:27:49.206Z,93.18
2022-12-15T02:30:28.346Z,92.88
2022-12-15T02:33:04.164Z,93.17
2022-12-15T02:35:42.685Z,93.00
2022-12-15T02:38:09.877Z,92.00
2022-12-15T02:40:37.210Z,92.47
2022-12-15T02:43:06.322Z,90.45
2022-12-15T02:45:42.998Z,91.25
2022-12-15T02:48:27.830Z,92.00
2022-12-15T02:50:58.284Z,93.30
2022-12-15T02:53:52.746Z,92.75
2022-12-15T02:56:32.010Z,93.04
2022-12-15T02:59:29.307Z,93.66
2022-12-15T03:02:03.410Z,94.11
2022-12-15T03:04:33.806Z,93.84
2022-12-15T03:07:04.785Z,93.92
2022-12-15T03:09:31.934Z,93.25
2022-12-15T03:11:58.790Z,93.48
2022-12-15T03:14:25.611Z,92.20
2022-12-15T03:16:53.445Z,91.88
2022-12-15T03:19:20.754Z,91.68
2022-12-15T03:21:47.238Z,92.17
2022-12-15T03:24:13.739Z,90.60
2022-12-15T03:26:40.204Z,90.40
2022-12-15T03:29:06.819Z,91.61
2022-12-15T03:31:33.327Z,92.57
2022-12-15T03:33:59.990Z,91.87
2022-12-15T03:36:26.532Z,92.17
2022-12-15T03:38:53.025Z,92.51
2022-12-15T03:41:20.010Z,91.91
2022-12-15T03:43:46.589Z,92.42
2022-12-15T03:46:16.689Z,90.95
2022-12-15T03:48:43.369Z,92.63
2022-12-15T03:51:10.022Z,93.47
2022-12-15T03:53:36.544Z,92.78
2022-12-15T03:56:03.032Z,94.31
2022-12-15T03:58:30.178Z,93.73
2022-12-15T04:00:56.703Z,93.38
2022-12-15T04:03:23.556Z,92.95
2022-12-15T04:05:51.337Z,92.91
2022-12-15T04:08:17.819Z,93.40
2022-12-15T04:10:44.410Z,93.00
2022-12-15T04:13:11.790Z,93.94
2022-12-15T04:15:40.197Z,93.11
2022-12-15T04:18:10.203Z,92.81
2022-12-15T04:20:38.678Z,92.89
2022-12-15T04:23:07.703Z,92.64
2022-12-15T04:25:53.409Z,92.18
2022-12-15T04:28:38.176Z,92.83
2022-12-15T04:31:29.335Z,93.51
2022-12-15T04:34:18.906Z,92.81
2022-12-15T04:37:07.231Z,92.21
2022-12-15T04:39:54.738Z,92.86
2022-12-15T04:42:40.362Z,92.25
2022-12-15T04:45:26.690Z,91.48
2022-12-15T04:48:12.121Z,92.14
2022-12-15T04:50:57.218Z,91.90
2022-12-15T04:53:42.381Z,92.07
2022-12-15T04:56:33.164Z,91.30
2022-12-15T04:59:19.086Z,92.01
2022-12-15T05:02:04.567Z,92.08
2022-12-15T05:04:50.039Z,92.68
2022-12-15T05:07:35.284Z,91.36
2022-12-15T05:10:20.953Z,91.22
2022-12-15T05:13:05.949Z,93.23
2022-12-15T05:15:52.625Z,92.41
2022-12-15T05:18:38.990Z,92.22
2022-12-15T05:21:24.935Z,92.75
2022-12-15T05:24:10.194Z,91.99
2022-12-15T05:26:55.398Z,92.89
2022-12-15T05:29:40.947Z,92.03
2022-12-15T05:32:08.011Z,92.43
2022-12-15T05:34:36.396Z,92.58
2022-12-15T05:37:04.671Z,94.02
2022-12-15T05:39:31.416Z,93.84
2022-12-15T05:41:57.972Z,93.57
2022-12-15T05:44:25.389Z,92.59
2022-12-15T05:46:51.957Z,92.92
2022-12-15T05:49:19.222Z,92.13
2022-12-15T05:51:47.769Z,91.83
2022-12-15T05:54:17.164Z,92.16
2022-12-15T05:56:44.226Z,93.68
2022-12-15T05:59:11.087Z,92.70
2022-12-15T06:01:37.668Z,92.88
2022-12-15T06:04:04.939Z,93.02
2022-12-15T06:06:31.482Z,92.62
2022-12-15T06:08:58.194Z,92.56
2022-12-15T06:11:24.679Z,91.42
2022-12-15T06:13:51.200Z,92.92
2022-12-15T06:16:20.214Z,93.59
2022-12-15T06:18:50.507Z,93.68
2022-12-15T06:21:19.859Z,94.19
2022-12-15T06:23:48.027Z,92.87
2022-12-15T06:26:23.287Z,93.02
2022-12-15T06:28:50.565Z,93.17
2022-12-15T06:31:19.770Z,92.81
2022-12-15T06:33:46.359Z,93.84
2022-12-15T06:36:14.553Z,94.34
2022-12-15T06:38:44.725Z,93.42
2022-12-15T06:41:18.929Z,93.66
2022-12-15T06:43:53.444Z,93.89
2022-12-15T06:46:20.109Z,92.81
2022-12-15T06:48:47.054Z,93.56
2022-12-15T06:51:17.383Z,91.95
2022-12-15T06:53:54.022Z,92.66
2022-12-15T06:56:32.510Z,93.22
2022-12-15T06:59:00.112Z,93.35
2022-12-15T07:01:27.972Z,93.18
2022-12-15T07:03:55.492Z,93.38
2022-12-15T07:06:22.738Z,93.75
2022-12-15T07:08:56.707Z,93.70
2022-12-15T07:11:23.917Z,93.99
2022-12-15T07:13:53.873Z,93.99
2022-12-15T07:16:21.863Z,93.86
2022-12-15T07:18:48.448Z,93.31
2022-12-15T07:21:15.035Z,94.63
2022-12-15T07:23:57.834Z,93.51
2022-12-15T07:26:25.251Z,93.41
2022-12-15T07:28:53.456Z,92.37
2022-12-15T07:31:20.505Z,94.02
2022-12-15T07:33:48.330Z,93.12
2022-12-15T07:36:15.662Z,92.58
2022-12-15T07:38:42.303Z,92.46
2022-12-15T07:41:10.117Z,92.39
2022-12-15T07:43:37.821Z,91.73
2022-12-15T07:46:05.528Z,92.33
2022-12-15T07:48:32.830Z,91.72
2022-12-15T07:51:09.638Z,92.63
2022-12-15T07:53:38.273Z,91.13
2022-12-15T07:56:08.617Z,91.82
2022-12-15T07:58:36.686Z,91.26
2022-12-15T08:01:08.439Z,92.62
2022-12-15T08:03:36.739Z,91.62
2022-12-15T08:06:08.585Z,91.58
2022-12-15T08:08:35.866Z,91.09
2022-12-15T08:11:06.629Z,90.67
2022-12-15T08:16:21.096Z,91.97
2022-12-15T08:18:48.584Z,91.83
2022-12-15T08:21:15.088Z,88.89
2022-12-15T08:23:41.645Z,88.54
2022-12-15T08:26:11.909Z,89.04
2022-12-15T08:28:39.915Z,88.32
2022-12-15T08:31:09.162Z,90.39
2022-12-15T08:33:37.036Z,89.82
2022-12-15T08:36:09.269Z,90.60
2022-12-15T08:38:38.533Z,89.35
2022-12-15T08:41:10.251Z,87.28
2022-12-15T08:43:41.166Z,89.26
2022-12-15T08:46:13.362Z,88.38
2022-12-15T08:48:40.001Z,87.40
2022-12-15T08:51:07.914Z,85.65
2022-12-15T08:53:34.377Z,87.76
2022-12-15T08:56:08.899Z,86.96
2022-12-15T08:58:35.656Z,87.99
2022-12-15T09:01:04.932Z,89.31
2022-12-15T09:03:32.785Z,88.97
2022-12-15T09:06:07.592Z,88.85
2022-12-15T09:08:34.572Z,88.19
2022-12-15T09:11:01.740Z,87.63
2022-12-15T09:13:28.823Z,88.62
2022-12-15T09:16:11.616Z,86.62
2022-12-15T09:18:38.283Z,86.17
2022-12-15T09:21:06.120Z,86.20
2022-12-15T09:23:33.639Z,86.99
2022-12-15T09:26:01.654Z,86.58
2022-12-15T09:28:29.523Z,86.81
2022-12-15T09:31:04.108Z,86.07
2022-12-15T09:33:31.204Z,83.27
2022-12-15T09:35:58.297Z,84.87
2022-12-15T09:38:25.932Z,84.62
2022-12-15T09:40:52.452Z,84.84
2022-12-15T09:43:46.222Z,85.64
2022-12-15T09:46:22.638Z,83.63
2022-12-15T09:48:51.205Z,84.06
2022-12-15T09:51:19.197Z,83.40
2022-12-15T09:53:55.930Z,82.26
2022-12-15T09:56:32.570Z,82.34
2022-12-15T09:59:23.272Z,81.39
2022-12-15T10:02:27.015Z,82.63
2022-12-15T10:05:57.332Z,80.80
2022-12-15T10:08:22.105Z,82.69
2022-12-15T10:10:48.572Z,81.60
2022-12-15T10:13:23.473Z,82.07
2022-12-15T10:16:03.682Z,83.68
2022-12-15T10:18:40.273Z,82.07
2022-12-15T10:21:14.180Z,81.10
2022-12-15T10:23:40.817Z,82.58
2022-12-15T10:26:21.673Z,82.32
2022-12-15T10:29:12.498Z,81.55
2022-12-15T10:31:55.649Z,81.00
2022-12-15T10:34:28.396Z,82.33
2022-12-15T10:36:56.488Z,80.43
2022-12-15T10:39:24.170Z,81.37
2022-12-15T10:42:25.820Z,81.24
2022-12-15T10:44:59.375Z,80.55
2022-12-15T10:47:31.386Z,82.66
2022-12-15T10:53:42.277Z,82.73
2022-12-15T10:56:09.388Z,81.55
2022-12-15T10:58:50.147Z,81.40
2022-12-15T11:01:20.142Z,80.45
2022-12-15T11:03:51.543Z,81.73
2022-12-15T11:06:28.587Z,79.94
2022-12-15T11:08:57.058Z,82.32
2022-12-15T11:11:51.834Z,81.31
2022-12-15T11:14:40.958Z,80.10
2022-12-15T11:32:37.736Z,82.65
2022-12-15T11:35:11.474Z,84.30
2022-12-15T11:38:00.630Z,83.26
2022-12-15T11:40:37.955Z,82.30
2022-12-15T11:43:39.516Z,81.19
2022-12-15T11:46:08.989Z,82.01
2022-12-15T11:48:48.957Z,81.92
2022-12-15T11:51:23.804Z,79.85
2022-12-15T11:54:10.482Z,83.23
2022-12-15T11:56:47.322Z,82.46
2022-12-15T11:59:42.680Z,82.18
2022-12-15T12:02:38.892Z,82.09
2022-12-15T12:05:23.875Z,81.77
2022-12-15T12:07:57.612Z,82.65
2022-12-15T12:10:42.739Z,81.72
2022-12-15T12:13:37.027Z,82.60
2022-12-15T12:16:06.822Z,79.97
2022-12-15T12:18:39.971Z,80.63
2022-12-15T12:21:10.664Z,81.09
2022-12-15T12:23:48.736Z,81.27
2022-12-15T12:26:29.383Z,80.31
2022-12-15T12:29:20.111Z,81.70
2022-12-15T12:31:50.717Z,83.29
2022-12-15T12:34:42.276Z,80.81
2022-12-15T12:37:28.847Z,83.17
2022-12-15T12:40:02.253Z,82.89
2022-12-15T12:42:43.873Z,81.12
2022-12-15T12:45:15.531Z,82.07
2022-12-15T12:47:47.541Z,81.63
2022-12-15T12:50:21.045Z,82.30
2022-12-15T12:52:57.483Z,81.94
2022-12-15T12:55:26.071Z,82.15
2022-12-15T12:57:54.371Z,81.76
2022-12-15T13:00:24.827Z,80.56
2022-12-15T13:03:17.524Z,79.18
2022-12-15T13:05:46.683Z,80.17
2022-12-15T13:08:26.687Z,81.51
2022-12-15T13:10:54.796Z,81.34
2022-12-15T13:13:33.793Z,82.63
2022-12-15T13:16:05.970Z,82.28
2022-12-15T13:18:55.245Z,83.13
2022-12-15T13:21:44.574Z,82.95
2022-12-15T13:24:44.313Z,83.52
2022-12-15T13:27:14.347Z,83.42
2022-12-15T13:30:01.764Z,83.43
2022-12-15T13:32:45.114Z,83.37
2022-12-15T13:35:11.954Z,82.15
2022-12-15T13:37:53.527Z,82.93
2022-12-15T13:40:22.827Z,80.35
2022-12-15T13:42:58.425Z,81.82
2022-12-15T13:45:39.883Z,81.77
2022-12-15T13:48:34.028Z,81.03
2022-12-15T13:51:15.376Z,80.60
2022-12-15T13:53:51.723Z,81.24
2022-12-15T13:56:25.627Z,81.48
2022-12-15T13:59:00.104Z,81.93
2022-12-15T14:01:32.815Z,81.03
2022-12-15T14:04:04.961Z,81.83
2022-12-15T14:06:37.844Z,82.30
2022-12-15T14:09:05.287Z,82.78
2022-12-15T14:11:52.641Z,81.91
2022-12-15T14:14:24.346Z,83.33
2022-12-15T14:17:23.498Z,83.45
2022-12-15T14:19:50.757Z,81.07
2022-12-15T14:22:26.694Z,82.05
2022-12-15T14:25:02.291Z,83.21
2022-12-15T14:27:32.158Z,82.98
2022-12-15T14:30:29.619Z,82.13
2022-12-15T14:33:28.001Z,82.28
2022-12-15T14:35:58.429Z,83.59
2022-12-15T14:38:59.904Z,84.31
2022-12-15T14:41:29.971Z,83.45
2022-12-15T14:44:37.254Z,83.38
2022-12-15T14:46:51.125Z,84.06
2022-12-15T14:49:22.204Z,84.24
2022-12-15T14:51:52.927Z,84.02
2022-12-15T14:54:51.820Z,84.41
2022-12-15T14:57:23.687Z,83.53
2022-12-15T14:59:51.333Z,85.18
2022-12-15T15:02:20.411Z,85.88
2022-12-15T15:03:10.165Z,81.57
2022-12-15T15:05:05.138Z,85.27
2022-12-15T15:07:33.090Z,85.66
2022-12-15T15:10:01.862Z,85.65
2022-12-15T15:12:45.392Z,85.51
2022-12-15T15:15:17.550Z,87.40
2022-12-15T15:17:53.431Z,88.31
2022-12-15T15:20:24.974Z,87.03
2022-12-15T15:23:17.822Z,86.78
2022-12-15T15:26:03.812Z,87.10
2022-12-15T15:28:39.752Z,87.50
2022-12-15T15:31:24.499Z,88.57
2022-12-15T15:33:51.833Z,87.48
2022-12-15T15:36:18.820Z,87.64
2022-12-15T15:38:46.833Z,88.07
2022-12-15T15:41:23.356Z,88.49
2022-12-15T15:43:49.968Z,88.44
2022-12-15T15:46:20.857Z,87.97
2022-12-15T15:48:53.598Z,87.23
2022-12-15T15:51:20.704Z,86.91
2022-12-15T15:53:47.843Z,86.67
2022-12-15T15:56:16.470Z,85.73
2022-12-15T15:58:44.047Z,86.71
2022-12-15T16:01:13.337Z,85.92
2022-12-15T16:03:41.218Z,86.84
2022-12-15T16:06:18.160Z,86.40
2022-12-15T16:08:46.572Z,86.99
2022-12-15T16:11:13.169Z,87.23
2022-12-15T16:13:39.979Z,87.50
2022-12-15T16:16:07.337Z,89.59
2022-12-15T16:18:35.123Z,88.41
2022-12-15T16:21:02.483Z,89.33
2022-12-15T16:23:29.756Z,88.63
2022-12-15T16:25:59.056Z,87.48
2022-12-15T16:28:30.983Z,85.88
2022-12-15T16:30:58.868Z,86.72
2022-12-15T16:33:25.916Z,87.11
2022-12-15T16:35:53.480Z,87.13
2022-12-15T16:38:26.135Z,86.38
2022-12-15T16:40:55.496Z,85.84
2022-12-15T16:43:26.846Z,85.94
2022-12-15T16:45:54.654Z,85.99
2022-12-15T16:48:22.475Z,86.84
2022-12-15T16:50:56.359Z,83.63
2022-12-15T16:53:27.010Z,84.84
2022-12-15T16:55:58.695Z,85.35
2022-12-15T16:58:27.358Z,85.67
2022-12-15T17:00:54.457Z,85.90
2022-12-15T17:03:28.590Z,86.04
2022-12-15T17:06:02.187Z,85.20
2022-12-15T17:08:39.997Z,85.71
2022-12-15T17:11:12.266Z,87.14
2022-12-15T17:13:45.584Z,87.52
2022-12-15T17:16:15.807Z,86.95
2022-12-15T17:18:42.909Z,87.25
2022-12-15T17:21:18.613Z,87.72
2022-12-15T17:23:49.085Z,86.22
2022-12-15T17:26:29.291Z,87.29
2022-12-15T17:29:00.214Z,86.38
2022-12-15T17:31:34.793Z,85.44
2022-12-15T17:34:22.035Z,86.33
2022-12-15T17:36:48.862Z,86.85
2022-12-15T17:39:19.449Z,86.76
2022-12-15T17:42:02.802Z,87.24
2022-12-15T17:44:35.666Z,87.81
2022-12-15T17:47:05.631Z,87.58
2022-12-15T17:49:36.471Z,87.85
2022-12-15T17:52:26.604Z,88.05
2022-12-15T17:54:53.535Z,88.60
2022-12-15T17:57:20.310Z,87.74
2022-12-15T17:59:47.243Z,87.48
2022-12-15T18:02:15.168Z,87.86
2022-12-15T18:04:43.528Z,87.53
2022-12-15T18:07:22.152Z,89.35
2022-12-15T18:09:50.975Z,89.03
2022-12-15T18:12:20.405Z,88.41
2022-12-15T18:14:48.339Z,88.35
2022-12-15T18:17:15.230Z,87.24
2022-12-15T18:19:41.779Z,89.27
2022-12-15T18:22:15.304Z,89.48
2022-12-15T18:24:42.227Z,89.09
2022-12-15T18:27:29.152Z,88.82
2022-12-15T18:29:56.663Z,89.94
2022-12-15T18:32:26.197Z,89.59
2022-12-15T18:34:54.004Z,89.31
2022-12-15T18:37:24.620Z,89.64
2022-12-15T18:39:51.539Z,88.57
2022-12-15T18:42:20.315Z,89.37
2022-12-15T18:44:52.419Z,89.70
2022-12-15T18:47:22.384Z,89.36
2022-12-15T18:49:49.498Z,89.38
2022-12-15T18:52:21.892Z,88.96
2022-12-15T18:54:51.771Z,88.88
2022-12-15T18:57:37.857Z,88.72
2022-12-15T19:00:18.699Z,88.75
2022-12-15T19:02:45.495Z,88.05
2022-12-15T19:05:27.623Z,88.46
2022-12-15T19:08:05.234Z,89.24
2022-12-15T19:10:34.042Z,89.67
2022-12-15T19:13:01.106Z,89.61
2022-12-15T19:15:30.473Z,88.67
2022-12-15T19:18:15.760Z,88.23
2022-12-15T19:21:01.648Z,88.24
2022-12-15T19:23:28.313Z,89.08
2022-12-15T19:25:54.930Z,89.02
2022-12-15T19:28:23.437Z,88.71
2022-12-15T19:30:52.461Z,88.37
2022-12-15T19:33:22.519Z,88.90
2022-12-15T19:35:51.418Z,89.60
2022-12-15T19:38:30.432Z,89.12
2022-12-15T19:40:58.431Z,89.07
2022-12-15T19:43:25.698Z,89.67
2022-12-15T19:45:53.019Z,89.72
2022-12-15T19:48:23.867Z,90.23
2022-12-15T19:50:52.098Z,89.40
2022-12-15T19:53:26.290Z,89.09
2022-12-15T19:55:59.203Z,89.75
2022-12-15T19:58:29.197Z,89.51
2022-12-15T20:00:57.960Z,90.72
2022-12-15T20:03:25.852Z,89.49
2022-12-15T20:05:55.293Z,89.95
2022-12-15T20:08:25.383Z,89.71
2022-12-15T20:10:53.918Z,89.99
2022-12-15T20:13:21.577Z,88.94
2022-12-15T20:15:48.386Z,90.09
2022-12-15T20:18:16.021Z,89.78
2022-12-15T20:20:45.553Z,89.93
2022-12-15T20:23:20.927Z,89.81
2022-12-15T20:25:47.547Z,90.57
2022-12-15T20:28:26.707Z,90.04
2022-12-15T20:30:53.840Z,90.64
2022-12-15T20:33:21.223Z,89.68
2022-12-15T20:35:50.294Z,90.13
2022-12-15T20:38:32.420Z,89.20
2022-12-15T20:41:00.717Z,89.17
2022-12-15T20:43:31.624Z,89.65
2022-12-15T20:46:08.426Z,89.78
2022-12-15T20:48:36.741Z,90.94
2022-12-15T20:51:09.211Z,89.44
2022-12-15T20:53:37.774Z,90.55
2022-12-15T20:56:04.733Z,90.84
2022-12-15T20:58:33.411Z,91.15
2022-12-15T21:01:00.619Z,91.00
2022-12-15T21:03:30.516Z,90.45
2022-12-15T21:05:58.512Z,90.39
2022-12-15T21:08:27.967Z,90.87
2022-12-15T21:10:59.765Z,90.59
2022-12-15T21:13:30.290Z,90.37
2022-12-15T21:15:57.100Z,90.17
2022-12-15T21:21:27.153Z,89.19
2022-12-15T21:23:54.729Z,89.46
2022-12-15T21:26:25.897Z,89.07
2022-12-15T21:28:56.791Z,90.12
2022-12-15T21:31:23.382Z,90.59
2022-12-15T21:33:50.309Z,90.16
2022-12-15T21:36:21.102Z,90.27
2022-12-15T21:38:50.890Z,90.95
2022-12-15T21:41:22.279Z,91.17
2022-12-15T21:43:49.915Z,91.16
2022-12-15T21:46:28.426Z,90.98
2022-12-15T21:49:14.457Z,91.08
2022-12-15T21:51:43.883Z,92.36
2022-12-15T21:54:16.006Z,91.10
2022-12-15T21:56:42.563Z,90.66
2022-12-15T21:59:17.823Z,90.77
2022-12-15T22:01:44.508Z,90.46
2022-12-15T22:04:25.617Z,90.98
2022-12-15T22:06:52.776Z,92.08
2022-12-15T22:09:21.258Z,92.23
2022-12-15T22:11:53.829Z,91.40
2022-12-15T22:14:33.649Z,91.32
2022-12-15T22:17:11.598Z,92.13
2022-12-15T22:19:38.130Z,90.80
2022-12-15T22:22:04.653Z,91.33
2022-12-15T22:24:31.124Z,91.17
2022-12-15T22:26:57.541Z,91.28
2022-12-15T22:29:24.962Z,91.32
2022-12-15T22:31:51.783Z,91.89
2022-12-15T22:34:21.334Z,91.33
2022-12-15T22:36:48.892Z,90.73
2022-12-15T22:39:15.490Z,91.07
2022-12-15T22:41:44.586Z,90.92
2022-12-15T22:44:17.842Z,90.36
2022-12-15T22:46:44.762Z,91.66
2022-12-15T22:49:23.355Z,89.53
2022-12-15T22:51:50.047Z,88.27
2022-12-15T22:54:21.594Z,89.54
2022-12-15T22:56:53.593Z,88.72
2022-12-15T22:59:29.104Z,90.42
2022-12-15T23:17:35.288Z,94.04
2022-12-15T23:20:01.803Z,94.15
2022-12-15T23:22:28.480Z,93.12
2022-12-15T23:24:55.726Z,94.02
2022-12-15T23:27:22.527Z,93.47
2022-12-15T23:29:49.209Z,93.50
2022-12-15T23:32:15.703Z,93.74
2022-12-15T23:34:42.270Z,92.81
2022-12-15T23:37:08.815Z,93.07
2022-12-15T23:39:35.312Z,93.86
2022-12-15T23:42:02.052Z,94.59
2022-12-15T23:44:28.579Z,94.45
2022-12-15T23:46:57.321Z,93.61
2022-12-15T23:49:23.891Z,94.34
2022-12-15T23:51:50.401Z,94.81
2022-12-15T23:54:16.918Z,94.33
2022-12-15T23:56:43.541Z,94.19
2022-12-15T23:59:11.471Z,94.39
